Погода Редлендзна неделю

Калифорния, США

01 - 07 сентября
  • 01сентября
    Сегодня
    +16°
    +33°
    Ясно и безоблачно
    ВремяПогодаТемператураВлажностьДавлениеВетер, м/сВероятность осадков
    02:00Ясно и безоблачно+18°C50 %725 мм1.2 м/с2 %
    05:00Ясно и безоблачно+17°C56 %725 мм0.5 м/с2 %
    08:00Ясно и безоблачно+19°C51 %726 мм0.3 м/с2 %
    11:00Ясно и безоблачно+27°C32 %727 мм0.8 м/с2 %
    14:00Ясно и безоблачно+33°C15 %726 мм3.5 м/с2 %
    17:00Ясно и безоблачно+32°C20 %725 мм5.9 м/с2 %
    20:00Ясно и безоблачно+25°C26 %725 мм3.7 м/с2 %
    23:00Ясно и безоблачно+21°C42 %726 мм1.9 м/с2 %
  • 02сентября
    Среда
    +16°
    +33°
    Ясно и безоблачно
    ВремяПогодаТемператураВлажностьДавлениеВетер, м/сВероятность осадков
    02:00Ясно и безоблачно+18°C48 %726 мм0.6 м/с2 %
    05:00Ясно и безоблачно+17°C49 %726 мм0.2 м/с2 %
    08:00Ясно и безоблачно+19°C45 %726 мм0.1 м/с2 %
    11:00Ясно и безоблачно+26°C28 %727 мм0.5 м/с2 %
    14:00Ясно и безоблачно+32°C14 %726 мм3.3 м/с2 %
    17:00Ясно и безоблачно+31°C17 %725 мм5.4 м/с2 %
    20:00Ясно и безоблачно+25°C23 %725 мм4.0 м/с2 %
    23:00Ясно и безоблачно+21°C41 %726 мм1.8 м/с2 %
  • 03сентября
    Четверг
    +16°
    +32°
    Ясно и безоблачно
    ВремяПогодаТемператураВлажностьДавлениеВетер, м/сВероятность осадков
    02:00Ясно и безоблачно+19°C45 %725 мм0.7 м/с2 %
    05:00Ясно и безоблачно+17°C47 %724 мм0.0 м/с2 %
    08:00Ясно и безоблачно+19°C42 %725 мм0.0 м/с2 %
    11:00Ясно и безоблачно+26°C27 %725 мм0.2 м/с2 %
    14:00Ясно и безоблачно+31°C18 %724 мм3.1 м/с2 %
    17:00Ясно и безоблачно+30°C23 %723 мм5.3 м/с2 %
    20:00Ясно и безоблачно+24°C35 %723 мм4.1 м/с2 %
    23:00Ясно и безоблачно+21°C53 %724 мм1.8 м/с2 %
  • 04сентября
    Пятница
    +18°
    +33°
    Ясно и безоблачно
    ВремяПогодаТемператураВлажностьДавлениеВетер, м/сВероятность осадков
    02:00Ясно и безоблачно+19°C63 %724 мм0.4 м/с2 %
    05:00Ясно и безоблачно+17°C64 %724 мм0.0 м/с2 %
    08:00Ясно и безоблачно+18°C47 %724 мм0.0 м/с2 %
    11:00Ясно и безоблачно+26°C27 %725 мм0.0 м/с2 %
    14:00Ясно и безоблачно+32°C21 %724 мм2.7 м/с2 %
    17:00Ясно и безоблачно+31°C22 %723 мм4.9 м/с2 %
    20:00Ясно и безоблачно+25°C31 %724 мм3.7 м/с2 %
    23:00Ясно и безоблачно+22°C47 %725 мм1.5 м/с3 %
  • 05сентября
    Суббота
    +20°
    +35°
    Ясно и безоблачно
    ВремяПогодаТемператураВлажностьДавлениеВетер, м/сВероятность осадков
    02:00Ясно и безоблачно+19°C46 %724 мм0.4 м/с5 %
    05:00Ясно и безоблачно+19°C44 %724 мм0.1 м/с9 %
    08:00Ясно и безоблачно+21°C36 %725 мм0.0 м/с19 %
    11:00Ясно и безоблачно+29°C17 %726 мм0.0 м/с21 %
    14:00Ясно и безоблачно+34°C19 %725 мм3.3 м/с27 %
    17:00Ясно и безоблачно+32°C20 %724 мм5.0 м/с29 %
    20:00Ясно и безоблачно+27°C24 %725 мм3.3 м/с25 %
    23:00Облачно с прояснениями+24°C38 %725 мм1.3 м/с24 %
  • 06сентября
    Воскресенье
    +20°
    +34°
    Ясно и безоблачно
    ВремяПогодаТемператураВлажностьДавлениеВетер, м/сВероятность осадков
    05:00Облачно с прояснениями+21°C64 %724 мм0.4 м/с27 %
    11:00Ясно и безоблачно+29°C42 %725 мм0.3 м/с22 %
    17:00Ясно и безоблачно+33°C59 %724 мм3.9 м/с38 %
    23:00Ясно и безоблачно+24°C52 %725 мм1.3 м/с32 %
  • 07сентября
    Понедельник
    +19°
    +34°
    Ясно и безоблачно
    ВремяПогодаТемператураВлажностьДавлениеВетер, м/сВероятность осадков
    05:00Ясно и безоблачно+20°C53 %724 мм1.5 м/с22 %
    11:00Ясно и безоблачно+30°C25 %726 мм2.4 м/с19 %
    17:00Ясно и безоблачно+31°C21 %724 мм3.3 м/с35 %
    23:00Ясно и безоблачно+23°C47 %724 мм1.4 м/с25 %
Мы используем cookies
Соглашаюсь